Aviation Digital Data Service (ADDS)

Output produced by METARs form (1307 UTC 19 January 2019)
found at http://www.aviationweather.gov/metar/data/
 
METAR text: WIII 191300Z VRB02KT 5000 HZ FEW020 27/23 Q1009 NOSIG
Conditions at: WIII (SOEKARNO-HATTA I, ID) observed 1300 UTC 19 January 2019
Temperature: 27.0°C (81°F)
Dewpoint: 23.0°C (73°F) [RH = 79%]
Pressure (altimeter): 29.79 inches Hg (1009.0 mb)
Winds: variable direction winds at 2 MPH (2 knots; 1.0 m/s)
Visibility: 3 miles ( 5 km)
Ceiling: at least 12,000 feet AGL
Clouds: few clouds at 2000 feet AGL
Weather: HZ  (haze)

METAR text: WIII 191230Z 03001KT 5000 HZ FEW020 26/23 Q1008 NOSIG
Conditions at: WIII (SOEKARNO-HATTA I, ID) observed 1230 UTC 19 January 2019
Temperature: 26.0°C (79°F)
Dewpoint: 23.0°C (73°F) [RH = 84%]
Pressure (altimeter): 29.76 inches Hg (1008.0 mb)
Winds: from the NNE (30 degrees) at 1 MPH (1 knots; 0.5 m/s)
Visibility: 3 miles ( 5 km)
Ceiling: at least 12,000 feet AGL
Clouds: few clouds at 2000 feet AGL
Weather: HZ  (haze)

METAR text: WIII 191200Z 34002KT 8000 FEW020 27/23 Q1008 NOSIG
Conditions at: WIII (SOEKARNO-HATTA I, ID) observed 1200 UTC 19 January 2019
Temperature: 27.0°C (81°F)
Dewpoint: 23.0°C (73°F) [RH = 79%]
Pressure (altimeter): 29.76 inches Hg (1008.0 mb)
Winds: from the NNW (340 degrees) at 2 MPH (2 knots; 1.0 m/s)
Visibility: 5 miles ( 8 km)
Ceiling: at least 12,000 feet AGL
Clouds: few clouds at 2000 feet AGL
Weather: no significant weather observed at this time

METAR text: WIII 191130Z VRB02KT 9000 FEW020 28/23 Q1008 NOSIG
Conditions at: WIII (SOEKARNO-HATTA I, ID) observed 1130 UTC 19 January 2019
Temperature: 28.0°C (82°F)
Dewpoint: 23.0°C (73°F) [RH = 74%]
Pressure (altimeter): 29.76 inches Hg (1008.0 mb)
Winds: variable direction winds at 2 MPH (2 knots; 1.0 m/s)
Visibility: 6 miles ( 9 km)
Ceiling: at least 12,000 feet AGL
Clouds: few clouds at 2000 feet AGL
Weather: no significant weather observed at this time

METAR text: WIII 191100Z 34003KT 9000 FEW020 28/23 Q1007 NOSIG
Conditions at: WIII (SOEKARNO-HATTA I, ID) observed 1100 UTC 19 January 2019
Temperature: 28.0°C (82°F)
Dewpoint: 23.0°C (73°F) [RH = 74%]
Pressure (altimeter): 29.73 inches Hg (1007.0 mb)
Winds: from the NNW (340 degrees) at 3 MPH (3 knots; 1.5 m/s)
Visibility: 6 miles ( 9 km)
Ceiling: at least 12,000 feet AGL
Clouds: few clouds at 2000 feet AGL
Weather: no significant weather observed at this time

METAR text: WIII 191030Z 32004KT 9000 FEW020 28/22 Q1007 NOSIG
Conditions at: WIII (SOEKARNO-HATTA I, ID) observed 1030 UTC 19 January 2019
Temperature: 28.0°C (82°F)
Dewpoint: 22.0°C (72°F) [RH = 70%]
Pressure (altimeter): 29.73 inches Hg (1007.0 mb)
Winds: from the NW (320 degrees) at 5 MPH (4 knots; 2.1 m/s)
Visibility: 6 miles ( 9 km)
Ceiling: at least 12,000 feet AGL
Clouds: few clouds at 2000 feet AGL
Weather: no significant weather observed at this time

METAR text: WIII 191000Z 33006KT 9000 FEW020 29/23 Q1007 NOSIG
Conditions at: WIII (SOEKARNO-HATTA I, ID) observed 1000 UTC 19 January 2019
Temperature: 29.0°C (84°F)
Dewpoint: 23.0°C (73°F) [RH = 70%]
Pressure (altimeter): 29.73 inches Hg (1007.0 mb)
Winds: from the NNW (330 degrees) at 7 MPH (6 knots; 3.1 m/s)
Visibility: 6 miles ( 9 km)
Ceiling: at least 12,000 feet AGL
Clouds: few clouds at 2000 feet AGL
Weather: no significant weather observed at this time

METAR text: WIII 190930Z 32005KT 9000 FEW020 28/23 Q1006 NOSIG
Conditions at: WIII (SOEKARNO-HATTA I, ID) observed 0930 UTC 19 January 2019
Temperature: 28.0°C (82°F)
Dewpoint: 23.0°C (73°F) [RH = 74%]
Pressure (altimeter): 29.70 inches Hg (1006.0 mb)
Winds: from the NW (320 degrees) at 6 MPH (5 knots; 2.6 m/s)
Visibility: 6 miles ( 9 km)
Ceiling: at least 12,000 feet AGL
Clouds: few clouds at 2000 feet AGL
Weather: no significant weather observed at this time

METAR text: WIII 190900Z 30007KT 9000 FEW020 28/23 Q1006 NOSIG
Conditions at: WIII (SOEKARNO-HATTA I, ID) observed 0900 UTC 19 January 2019
Temperature: 28.0°C (82°F)
Dewpoint: 23.0°C (73°F) [RH = 74%]
Pressure (altimeter): 29.70 inches Hg (1006.0 mb)
Winds: from the WNW (300 degrees) at 8 MPH (7 knots; 3.6 m/s)
Visibility: 6 miles ( 9 km)
Ceiling: at least 12,000 feet AGL
Clouds: few clouds at 2000 feet AGL
Weather: no significant weather observed at this time

METAR text: WIII 190830Z 32008KT 9000 SCT019 28/22 Q1007 NOSIG
Conditions at: WIII (SOEKARNO-HATTA I, ID) observed 0830 UTC 19 January 2019
Temperature: 28.0°C (82°F)
Dewpoint: 22.0°C (72°F) [RH = 70%]
Pressure (altimeter): 29.73 inches Hg (1007.0 mb)
Winds: from the NW (320 degrees) at 9 MPH (8 knots; 4.1 m/s)
Visibility: 6 miles ( 9 km)
Ceiling: at least 12,000 feet AGL
Clouds: scattered clouds at 1900 feet AGL
Weather: no significant weather observed at this time

METAR text: WIII 190800Z 31008KT 9000 SCT019 28/23 Q1007 NOSIG
Conditions at: WIII (SOEKARNO-HATTA I, ID) observed 0800 UTC 19 January 2019
Temperature: 28.0°C (82°F)
Dewpoint: 23.0°C (73°F) [RH = 74%]
Pressure (altimeter): 29.73 inches Hg (1007.0 mb)
Winds: from the NW (310 degrees) at 9 MPH (8 knots; 4.1 m/s)
Visibility: 6 miles ( 9 km)
Ceiling: at least 12,000 feet AGL
Clouds: scattered clouds at 1900 feet AGL
Weather: no significant weather observed at this time

METAR text: WIII 190730Z 31009KT 9000 SCT019 28/23 Q1007 NOSIG
Conditions at: WIII (SOEKARNO-HATTA I, ID) observed 0730 UTC 19 January 2019
Temperature: 28.0°C (82°F)
Dewpoint: 23.0°C (73°F) [RH = 74%]
Pressure (altimeter): 29.73 inches Hg (1007.0 mb)
Winds: from the NW (310 degrees) at 10 MPH (9 knots; 4.6 m/s)
Visibility: 6 miles ( 9 km)
Ceiling: at least 12,000 feet AGL
Clouds: scattered clouds at 1900 feet AGL
Weather: no significant weather observed at this time

METAR text: WIII 190700Z 31009KT 9000 SCT019 28/23 Q1008 NOSIG
Conditions at: WIII (SOEKARNO-HATTA I, ID) observed 0700 UTC 19 January 2019
Temperature: 28.0°C (82°F)
Dewpoint: 23.0°C (73°F) [RH = 74%]
Pressure (altimeter): 29.76 inches Hg (1008.0 mb)
Winds: from the NW (310 degrees) at 10 MPH (9 knots; 4.6 m/s)
Visibility: 6 miles ( 9 km)
Ceiling: at least 12,000 feet AGL
Clouds: scattered clouds at 1900 feet AGL
Weather: no significant weather observed at this time

METAR text: WIII 190630Z 30012KT 9000 SCT019 28/24 Q1008 NOSIG
Conditions at: WIII (SOEKARNO-HATTA I, ID) observed 0630 UTC 19 January 2019
Temperature: 28.0°C (82°F)
Dewpoint: 24.0°C (75°F) [RH = 79%]
Pressure (altimeter): 29.76 inches Hg (1008.0 mb)
Winds: from the WNW (300 degrees) at 14 MPH (12 knots; 6.2 m/s)
Visibility: 6 miles ( 9 km)
Ceiling: at least 12,000 feet AGL
Clouds: scattered clouds at 1900 feet AGL
Weather: no significant weather observed at this time

METAR text: WIII 190600Z 32009KT 9000 SCT019 28/23 Q1008 NOSIG
Conditions at: WIII (SOEKARNO-HATTA I, ID) observed 0600 UTC 19 January 2019
Temperature: 28.0°C (82°F)
Dewpoint: 23.0°C (73°F) [RH = 74%]
Pressure (altimeter): 29.76 inches Hg (1008.0 mb)
Winds: from the NW (320 degrees) at 10 MPH (9 knots; 4.6 m/s)
Visibility: 6 miles ( 9 km)
Ceiling: at least 12,000 feet AGL
Clouds: scattered clouds at 1900 feet AGL
Weather: no significant weather observed at this time

METAR text: WIII 190530Z 30009KT 9000 SCT020 27/24 Q1009 NOSIG
Conditions at: WIII (SOEKARNO-HATTA I, ID) observed 0530 UTC 19 January 2019
Temperature: 27.0°C (81°F)
Dewpoint: 24.0°C (75°F) [RH = 84%]
Pressure (altimeter): 29.79 inches Hg (1009.0 mb)
Winds: from the WNW (300 degrees) at 10 MPH (9 knots; 4.6 m/s)
Visibility: 6 miles ( 9 km)
Ceiling: at least 12,000 feet AGL
Clouds: scattered clouds at 2000 feet AGL
Weather: no significant weather observed at this time

METAR text: WIII 190500Z 30009KT 8000 SCT019 27/24 Q1009 NOSIG
Conditions at: WIII (SOEKARNO-HATTA I, ID) observed 0500 UTC 19 January 2019
Temperature: 27.0°C (81°F)
Dewpoint: 24.0°C (75°F) [RH = 84%]
Pressure (altimeter): 29.79 inches Hg (1009.0 mb)
Winds: from the WNW (300 degrees) at 10 MPH (9 knots; 4.6 m/s)
Visibility: 5 miles ( 8 km)
Ceiling: at least 12,000 feet AGL
Clouds: scattered clouds at 1900 feet AGL
Weather: no significant weather observed at this time

METAR text: WIII 190430Z 32007KT 7000 BKN019 26/24 Q1009 RERA NOSIG
Conditions at: WIII (SOEKARNO-HATTA I, ID) observed 0430 UTC 19 January 2019
Temperature: 26.0°C (79°F)
Dewpoint: 24.0°C (75°F) [RH = 89%]
Pressure (altimeter): 29.79 inches Hg (1009.0 mb)
Winds: from the NW (320 degrees) at 8 MPH (7 knots; 3.6 m/s)
Visibility: 4 miles ( 7 km)
Ceiling: 1900 feet AGL
Clouds: broken clouds at 1900 feet AGL
Weather: no significant weather observed at this time

METAR text: WIII 190400Z 30008KT 6000 -RA BKN019 26/23 Q1010 NOSIG
Conditions at: WIII (SOEKARNO-HATTA I, ID) observed 0400 UTC 19 January 2019
Temperature: 26.0°C (79°F)
Dewpoint: 23.0°C (73°F) [RH = 84%]
Pressure (altimeter): 29.82 inches Hg (1010.0 mb)
Winds: from the WNW (300 degrees) at 9 MPH (8 knots; 4.1 m/s)
Visibility: 4 miles ( 6 km)
Ceiling: 1900 feet AGL
Clouds: broken clouds at 1900 feet AGL
Weather: -RA  (light rain)

METAR text: WIII 190330Z 30011KT 7000 BKN019 26/23 Q1010 RERA NOSIG
Conditions at: WIII (SOEKARNO-HATTA I, ID) observed 0330 UTC 19 January 2019
Temperature: 26.0°C (79°F)
Dewpoint: 23.0°C (73°F) [RH = 84%]
Pressure (altimeter): 29.82 inches Hg (1010.0 mb)
Winds: from the WNW (300 degrees) at 13 MPH (11 knots; 5.7 m/s)
Visibility: 4 miles ( 7 km)
Ceiling: 1900 feet AGL
Clouds: broken clouds at 1900 feet AGL
Weather: no significant weather observed at this time

METAR text: WIII 190300Z 30008KT 6000 -RA BKN019 26/23 Q1010 RETS NOSIG
Conditions at: WIII (SOEKARNO-HATTA I, ID) observed 0300 UTC 19 January 2019
Temperature: 26.0°C (79°F)
Dewpoint: 23.0°C (73°F) [RH = 84%]
Pressure (altimeter): 29.82 inches Hg (1010.0 mb)
Winds: from the WNW (300 degrees) at 9 MPH (8 knots; 4.1 m/s)
Visibility: 4 miles ( 6 km)
Ceiling: 1900 feet AGL
Clouds: broken clouds at 1900 feet AGL
Weather: -RA  (light rain)

METAR text: WIII 190230Z 31008G18KT 5000 -TSRA FEW018CB BKN019 25/23 Q1010NOSIG RMK CB TO NE AND E
Conditions at: WIII (SOEKARNO-HATTA I, ID) observed 0230 UTC 19 January 2019
Temperature: 25.0°C (77°F)
Dewpoint: 23.0°C (73°F) [RH = 89%]
Pressure (altimeter): missing
Winds: from the NW (310 degrees) at 9 MPH (8 knots; 4.1 m/s)
gusting to 21 MPH (18 knots; 9.3 m/s)
Visibility: 3 miles ( 5 km)
Ceiling: 1900 feet AGL
Clouds: few clouds at 1800 feet AGL
broken clouds at 1900 feet AGL
Weather: -TSRA  (light rain associated with thunderstorm(s))

METAR text: WIII 190200Z 29009KT 5000 -TSRA FEW018CB BKN019 25/23 Q1010 NOSIG RMK CB TO NE AND E
Conditions at: WIII (SOEKARNO-HATTA I, ID) observed 0200 UTC 19 January 2019
Temperature: 25.0°C (77°F)
Dewpoint: 23.0°C (73°F) [RH = 89%]
Pressure (altimeter): 29.82 inches Hg (1010.0 mb)
Winds: from the WNW (290 degrees) at 10 MPH (9 knots; 4.6 m/s)
Visibility: 3 miles ( 5 km)
Ceiling: 1900 feet AGL
Clouds: few clouds at 1800 feet AGL
broken clouds at 1900 feet AGL
Weather: -TSRA  (light rain associated with thunderstorm(s))

METAR text: WIII 190130Z 28006KT 5000 -TSRA FEW018CB BKN019 25/23 Q1010 BECMG TL0230 -TSRA RMK CB TO NE
Conditions at: WIII (SOEKARNO-HATTA I, ID) observed 0130 UTC 19 January 2019
Temperature: 25.0°C (77°F)
Dewpoint: 23.0°C (73°F) [RH = 89%]
Pressure (altimeter): 29.82 inches Hg (1010.0 mb)
Winds: from the W (280 degrees) at 7 MPH (6 knots; 3.1 m/s)
Visibility: 3 miles ( 5 km)
Ceiling: 1900 feet AGL
Clouds: few clouds at 1800 feet AGL
broken clouds at 1900 feet AGL
Weather: -TSRA  (light rain associated with thunderstorm(s))

METAR text: WIII 190100Z 30008KT 4000 TSRA FEW018CB BKN019 24/22 Q1010 BECMG TL0110 -TSRA RMK CB TO NE
Conditions at: WIII (SOEKARNO-HATTA I, ID) observed 0100 UTC 19 January 2019
Temperature: 24.0°C (75°F)
Dewpoint: 22.0°C (72°F) [RH = 89%]
Pressure (altimeter): 29.82 inches Hg (1010.0 mb)
Winds: from the WNW (300 degrees) at 9 MPH (8 knots; 4.1 m/s)
Visibility: 2.49 miles (4.01 km)
Ceiling: 1900 feet AGL
Clouds: few clouds at 1800 feet AGL
broken clouds at 1900 feet AGL
Weather: TSRA  (rain associated with thunderstorm(s))

METAR text: WIII 190030Z 34004KT 5000 TS FEW018CB SCT020 26/23 Q1010 TEMPOFM0035 1500 +TSRA RMK CB TO W AND N
Conditions at: WIII (SOEKARNO-HATTA I, ID) observed 0030 UTC 19 January 2019
Temperature: 26.0°C (79°F)
Dewpoint: 23.0°C (73°F) [RH = 84%]
Pressure (altimeter): 29.82 inches Hg (1010.0 mb)
Winds: from the NNW (340 degrees) at 5 MPH (4 knots; 2.1 m/s)
Visibility: 3 miles ( 5 km)
Ceiling: at least 12,000 feet AGL
Clouds: few clouds at 1800 feet AGL
scattered clouds at 2000 feet AGL
Weather: TS  (thunderstorm)

METAR text: WIII 190000Z 02005KT 9999 TS FEW018CB SCT020 25/23 Q1009 TEMPOFM0015 3000 -TSRA RMK CB TO NW
Conditions at: WIII (SOEKARNO-HATTA I, ID) observed 0000 UTC 19 January 2019
Temperature: 25.0°C (77°F)
Dewpoint: 23.0°C (73°F) [RH = 89%]
Pressure (altimeter): 29.79 inches Hg (1009.0 mb)
Winds: from the NNE (20 degrees) at 6 MPH (5 knots; 2.6 m/s)
Visibility: 6 or more miles (10+ km)
Ceiling: at least 12,000 feet AGL
Clouds: few clouds at 1800 feet AGL
scattered clouds at 2000 feet AGL
Weather: TS  (thunderstorm)

METAR text: WIII 182330Z VRB04KT 5000 VCTS FEW018CB SCT020 26/23 Q1009 NOSIG RMK CB TO N
Conditions at: WIII (SOEKARNO-HATTA I, ID) observed 2330 UTC 18 January 2019
Temperature: 26.0°C (79°F)
Dewpoint: 23.0°C (73°F) [RH = 84%]
Pressure (altimeter): 29.79 inches Hg (1009.0 mb)
Winds: variable direction winds at 5 MPH (4 knots; 2.1 m/s)
Visibility: 3 miles ( 5 km)
Ceiling: at least 12,000 feet AGL
Clouds: few clouds at 1800 feet AGL
scattered clouds at 2000 feet AGL
Weather: VCTS  (thunderstorm in vicinity)

METAR text: WIII 182300Z 25006KT 5000 VCTS FEW018CB SCT020 26/23 Q1008 NOSIG RMK CB TO N
Conditions at: WIII (SOEKARNO-HATTA I, ID) observed 2300 UTC 18 January 2019
Temperature: 26.0°C (79°F)
Dewpoint: 23.0°C (73°F) [RH = 84%]
Pressure (altimeter): 29.76 inches Hg (1008.0 mb)
Winds: from the WSW (250 degrees) at 7 MPH (6 knots; 3.1 m/s)
Visibility: 3 miles ( 5 km)
Ceiling: at least 12,000 feet AGL
Clouds: few clouds at 1800 feet AGL
scattered clouds at 2000 feet AGL
Weather: VCTS  (thunderstorm in vicinity)

METAR text: WIII 182230Z 25007KT 5000 VCTS FEW018CB SCT020 26/23 Q1008 NOSIG RMK CB TO N
Conditions at: WIII (SOEKARNO-HATTA I, ID) observed 2230 UTC 18 January 2019
Temperature: 26.0°C (79°F)
Dewpoint: 23.0°C (73°F) [RH = 84%]
Pressure (altimeter): 29.76 inches Hg (1008.0 mb)
Winds: from the WSW (250 degrees) at 8 MPH (7 knots; 3.6 m/s)
Visibility: 3 miles ( 5 km)
Ceiling: at least 12,000 feet AGL
Clouds: few clouds at 1800 feet AGL
scattered clouds at 2000 feet AGL
Weather: VCTS  (thunderstorm in vicinity)

METAR text: WIII 182200Z 27005KT 5000 VCTS CLD FEWCB018 SCT020 25/23 Q1007NOSIG RMK CB TO N
Conditions at: WIII (SOEKARNO-HATTA I, ID) observed 2200 UTC 18 January 2019
Temperature: 25.0°C (77°F)
Dewpoint: 23.0°C (73°F) [RH = 89%]
Pressure (altimeter): missing
Winds: from the W (270 degrees) at 6 MPH (5 knots; 2.6 m/s)
Visibility: 3 miles ( 5 km)
Ceiling: at least 12,000 feet AGL
Clouds: scattered clouds at 2000 feet AGL
Weather: VCTS  (thunderstorm in vicinity)

METAR text: WIII 182130Z 28006KT 5000 HZ SCT020 25/23 Q1007 NOSIG
Conditions at: WIII (SOEKARNO-HATTA I, ID) observed 2130 UTC 18 January 2019
Temperature: 25.0°C (77°F)
Dewpoint: 23.0°C (73°F) [RH = 89%]
Pressure (altimeter): 29.73 inches Hg (1007.0 mb)
Winds: from the W (280 degrees) at 7 MPH (6 knots; 3.1 m/s)
Visibility: 3 miles ( 5 km)
Ceiling: at least 12,000 feet AGL
Clouds: scattered clouds at 2000 feet AGL
Weather: HZ  (haze)

METAR text: WIII 182100Z 28004KT 5000 VCTS FEW018CB FEW020 25/23 Q1007 NOSIG RMK CB TO N
Conditions at: WIII (SOEKARNO-HATTA I, ID) observed 2100 UTC 18 January 2019
Temperature: 25.0°C (77°F)
Dewpoint: 23.0°C (73°F) [RH = 89%]
Pressure (altimeter): 29.73 inches Hg (1007.0 mb)
Winds: from the W (280 degrees) at 5 MPH (4 knots; 2.1 m/s)
Visibility: 3 miles ( 5 km)
Ceiling: at least 12,000 feet AGL
Clouds: few clouds at 1800 feet AGL
few clouds at 2000 feet AGL
Weather: VCTS  (thunderstorm in vicinity)

METAR text: WIII 182030Z 26005KT 5000 VCTS FEW018CB FEW019 25/23 Q1007 NOSIG RMK CB TO N
Conditions at: WIII (SOEKARNO-HATTA I, ID) observed 2030 UTC 18 January 2019
Temperature: 25.0°C (77°F)
Dewpoint: 23.0°C (73°F) [RH = 89%]
Pressure (altimeter): 29.73 inches Hg (1007.0 mb)
Winds: from the W (260 degrees) at 6 MPH (5 knots; 2.6 m/s)
Visibility: 3 miles ( 5 km)
Ceiling: at least 12,000 feet AGL
Clouds: few clouds at 1800 feet AGL
few clouds at 1900 feet AGL
Weather: VCTS  (thunderstorm in vicinity)

METAR text: WIII 182000Z 26003KT 5000 VCTS FEW018CB FEW018 25/23 Q1007 NOSIG RMK CB TO N
Conditions at: WIII (SOEKARNO-HATTA I, ID) observed 2000 UTC 18 January 2019
Temperature: 25.0°C (77°F)
Dewpoint: 23.0°C (73°F) [RH = 89%]
Pressure (altimeter): 29.73 inches Hg (1007.0 mb)
Winds: from the W (260 degrees) at 3 MPH (3 knots; 1.5 m/s)
Visibility: 3 miles ( 5 km)
Ceiling: at least 12,000 feet AGL
Clouds: few clouds at 1800 feet AGL
few clouds at 1800 feet AGL
Weather: VCTS  (thunderstorm in vicinity)

METAR text: WIII 181930Z 26005KT 5000 VCTS FEW018CB FEW018 25/23 Q1007 NOSIG RMK CB TO N
Conditions at: WIII (SOEKARNO-HATTA I, ID) observed 1930 UTC 18 January 2019
Temperature: 25.0°C (77°F)
Dewpoint: 23.0°C (73°F) [RH = 89%]
Pressure (altimeter): 29.73 inches Hg (1007.0 mb)
Winds: from the W (260 degrees) at 6 MPH (5 knots; 2.6 m/s)
Visibility: 3 miles ( 5 km)
Ceiling: at least 12,000 feet AGL
Clouds: few clouds at 1800 feet AGL
few clouds at 1800 feet AGL
Weather: VCTS  (thunderstorm in vicinity)

METAR text: WIII 181900Z 26007KT 5000 HZ FEW018 25/23 Q1007 NOSIG
Conditions at: WIII (SOEKARNO-HATTA I, ID) observed 1900 UTC 18 January 2019
Temperature: 25.0°C (77°F)
Dewpoint: 23.0°C (73°F) [RH = 89%]
Pressure (altimeter): 29.73 inches Hg (1007.0 mb)
Winds: from the W (260 degrees) at 8 MPH (7 knots; 3.6 m/s)
Visibility: 3 miles ( 5 km)
Ceiling: at least 12,000 feet AGL
Clouds: few clouds at 1800 feet AGL
Weather: HZ  (haze)

METAR text: WIII 181830Z 26007KT 5000 HZ FEW018 26/23 Q1008 NOSIG
Conditions at: WIII (SOEKARNO-HATTA I, ID) observed 1830 UTC 18 January 2019
Temperature: 26.0°C (79°F)
Dewpoint: 23.0°C (73°F) [RH = 84%]
Pressure (altimeter): 29.76 inches Hg (1008.0 mb)
Winds: from the W (260 degrees) at 8 MPH (7 knots; 3.6 m/s)
Visibility: 3 miles ( 5 km)
Ceiling: at least 12,000 feet AGL
Clouds: few clouds at 1800 feet AGL
Weather: HZ  (haze)

METAR text: WIII 181800Z 26008KT 5000 HZ FEW018 26/23 Q1008 NOSIG
Conditions at: WIII (SOEKARNO-HATTA I, ID) observed 1800 UTC 18 January 2019
Temperature: 26.0°C (79°F)
Dewpoint: 23.0°C (73°F) [RH = 84%]
Pressure (altimeter): 29.76 inches Hg (1008.0 mb)
Winds: from the W (260 degrees) at 9 MPH (8 knots; 4.1 m/s)
Visibility: 3 miles ( 5 km)
Ceiling: at least 12,000 feet AGL
Clouds: few clouds at 1800 feet AGL
Weather: HZ  (haze)

METAR text: WIII 181730Z 27006KT 5000 HZ FEW018 26/23 Q1008 NOSIG
Conditions at: WIII (SOEKARNO-HATTA I, ID) observed 1730 UTC 18 January 2019
Temperature: 26.0°C (79°F)
Dewpoint: 23.0°C (73°F) [RH = 84%]
Pressure (altimeter): 29.76 inches Hg (1008.0 mb)
Winds: from the W (270 degrees) at 7 MPH (6 knots; 3.1 m/s)
Visibility: 3 miles ( 5 km)
Ceiling: at least 12,000 feet AGL
Clouds: few clouds at 1800 feet AGL
Weather: HZ  (haze)

METAR text: WIII 181700Z 28006KT 5000 HZ FEW018 26/23 Q1008 NOSIG
Conditions at: WIII (SOEKARNO-HATTA I, ID) observed 1700 UTC 18 January 2019
Temperature: 26.0°C (79°F)
Dewpoint: 23.0°C (73°F) [RH = 84%]
Pressure (altimeter): 29.76 inches Hg (1008.0 mb)
Winds: from the W (280 degrees) at 7 MPH (6 knots; 3.1 m/s)
Visibility: 3 miles ( 5 km)
Ceiling: at least 12,000 feet AGL
Clouds: few clouds at 1800 feet AGL
Weather: HZ  (haze)

METAR text: WIII 181630Z 28006KT 5000 HZ FEW018 26/23 Q1009 NOSIG
Conditions at: WIII (SOEKARNO-HATTA I, ID) observed 1630 UTC 18 January 2019
Temperature: 26.0°C (79°F)
Dewpoint: 23.0°C (73°F) [RH = 84%]
Pressure (altimeter): 29.79 inches Hg (1009.0 mb)
Winds: from the W (280 degrees) at 7 MPH (6 knots; 3.1 m/s)
Visibility: 3 miles ( 5 km)
Ceiling: at least 12,000 feet AGL
Clouds: few clouds at 1800 feet AGL
Weather: HZ  (haze)

METAR text: WIII 181600Z 27008KT 5000 HZ FEW018 26/24 Q1009 NOSIG
Conditions at: WIII (SOEKARNO-HATTA I, ID) observed 1600 UTC 18 January 2019
Temperature: 26.0°C (79°F)
Dewpoint: 24.0°C (75°F) [RH = 89%]
Pressure (altimeter): 29.79 inches Hg (1009.0 mb)
Winds: from the W (270 degrees) at 9 MPH (8 knots; 4.1 m/s)
Visibility: 3 miles ( 5 km)
Ceiling: at least 12,000 feet AGL
Clouds: few clouds at 1800 feet AGL
Weather: HZ  (haze)

METAR text: WIII 181530Z 26008KT 6000 FEW018 26/23 Q1009 NOSIG
Conditions at: WIII (SOEKARNO-HATTA I, ID) observed 1530 UTC 18 January 2019
Temperature: 26.0°C (79°F)
Dewpoint: 23.0°C (73°F) [RH = 84%]
Pressure (altimeter): 29.79 inches Hg (1009.0 mb)
Winds: from the W (260 degrees) at 9 MPH (8 knots; 4.1 m/s)
Visibility: 4 miles ( 6 km)
Ceiling: at least 12,000 feet AGL
Clouds: few clouds at 1800 feet AGL
Weather: no significant weather observed at this time

METAR text: WIII 181500Z 28006KT 6000 FEW018 27/24 Q1009 NOSIG
Conditions at: WIII (SOEKARNO-HATTA I, ID) observed 1500 UTC 18 January 2019
Temperature: 27.0°C (81°F)
Dewpoint: 24.0°C (75°F) [RH = 84%]
Pressure (altimeter): 29.79 inches Hg (1009.0 mb)
Winds: from the W (280 degrees) at 7 MPH (6 knots; 3.1 m/s)
Visibility: 4 miles ( 6 km)
Ceiling: at least 12,000 feet AGL
Clouds: few clouds at 1800 feet AGL
Weather: no significant weather observed at this time

METAR text: WIII 181430Z 25007KT 6000 FEW018 27/23 Q1009 NOSIG
Conditions at: WIII (SOEKARNO-HATTA I, ID) observed 1430 UTC 18 January 2019
Temperature: 27.0°C (81°F)
Dewpoint: 23.0°C (73°F) [RH = 79%]
Pressure (altimeter): 29.79 inches Hg (1009.0 mb)
Winds: from the WSW (250 degrees) at 8 MPH (7 knots; 3.6 m/s)
Visibility: 4 miles ( 6 km)
Ceiling: at least 12,000 feet AGL
Clouds: few clouds at 1800 feet AGL
Weather: no significant weather observed at this time

METAR text: WIII 181400Z 27008KT 6000 FEW018 27/24 Q1009 NOSIG
Conditions at: WIII (SOEKARNO-HATTA I, ID) observed 1400 UTC 18 January 2019
Temperature: 27.0°C (81°F)
Dewpoint: 24.0°C (75°F) [RH = 84%]
Pressure (altimeter): 29.79 inches Hg (1009.0 mb)
Winds: from the W (270 degrees) at 9 MPH (8 knots; 4.1 m/s)
Visibility: 4 miles ( 6 km)
Ceiling: at least 12,000 feet AGL
Clouds: few clouds at 1800 feet AGL
Weather: no significant weather observed at this time

METAR text: WIII 181330Z 28005KT 6000 FEW018CB FEW018 27/24 Q1009 NOSIG RMK CB TO N
Conditions at: WIII (SOEKARNO-HATTA I, ID) observed 1330 UTC 18 January 2019
Temperature: 27.0°C (81°F)
Dewpoint: 24.0°C (75°F) [RH = 84%]
Pressure (altimeter): 29.79 inches Hg (1009.0 mb)
Winds: from the W (280 degrees) at 6 MPH (5 knots; 2.6 m/s)
Visibility: 4 miles ( 6 km)
Ceiling: at least 12,000 feet AGL
Clouds: few clouds at 1800 feet AGL
few clouds at 1800 feet AGL
Weather: no significant weather observed at this time

METAR text: WIII 181300Z 25009KT 8000 FEW018CB SCT019 27/24 Q1008 NOSIG RMK CB TO N
Conditions at: WIII (SOEKARNO-HATTA I, ID) observed 1300 UTC 18 January 2019
Temperature: 27.0°C (81°F)
Dewpoint: 24.0°C (75°F) [RH = 84%]
Pressure (altimeter): 29.76 inches Hg (1008.0 mb)
Winds: from the WSW (250 degrees) at 10 MPH (9 knots; 4.6 m/s)
Visibility: 5 miles ( 8 km)
Ceiling: at least 12,000 feet AGL
Clouds: few clouds at 1800 feet AGL
scattered clouds at 1900 feet AGL
Weather: no significant weather observed at this time

METAR text: WIII 181230Z VRB04KT 7000 FEW018CB SCT019 27/24 Q1008 RETS NOSIG RMK CB TO N
Conditions at: WIII (SOEKARNO-HATTA I, ID) observed 1230 UTC 18 January 2019
Temperature: 27.0°C (81°F)
Dewpoint: 24.0°C (75°F) [RH = 84%]
Pressure (altimeter): 29.76 inches Hg (1008.0 mb)
Winds: variable direction winds at 5 MPH (4 knots; 2.1 m/s)
Visibility: 4 miles ( 7 km)
Ceiling: at least 12,000 feet AGL
Clouds: few clouds at 1800 feet AGL
scattered clouds at 1900 feet AGL
Weather: no significant weather observed at this time

METAR text: WIII 181200Z VRB01KT 6000 TS FEW018CB SCT019 26/24 Q1008 RERA BECMG TL1230 HZ RMK CB TO N
Conditions at: WIII (SOEKARNO-HATTA I, ID) observed 1200 UTC 18 January 2019
Temperature: 26.0°C (79°F)
Dewpoint: 24.0°C (75°F) [RH = 89%]
Pressure (altimeter): 29.76 inches Hg (1008.0 mb)
Winds: variable direction winds at 1 MPH (1 knots; 0.5 m/s)
Visibility: 4 miles ( 6 km)
Ceiling: at least 12,000 feet AGL
Clouds: few clouds at 1800 feet AGL
scattered clouds at 1900 feet AGL
Weather: TS  (thunderstorm)

METAR text: WIII 181130Z VRB01KT 6000 -TSRA FEW018CB BKN019 27/24 Q1007 BECMG TL1230 -RA RMK CB TO N
Conditions at: WIII (SOEKARNO-HATTA I, ID) observed 1130 UTC 18 January 2019
Temperature: 27.0°C (81°F)
Dewpoint: 24.0°C (75°F) [RH = 84%]
Pressure (altimeter): 29.73 inches Hg (1007.0 mb)
Winds: variable direction winds at 1 MPH (1 knots; 0.5 m/s)
Visibility: 4 miles ( 6 km)
Ceiling: 1900 feet AGL
Clouds: few clouds at 1800 feet AGL
broken clouds at 1900 feet AGL
Weather: -TSRA  (light rain associated with thunderstorm(s))

METAR text: WIII 181100Z VRB03KT 5000 -RA FEW018CB BKN019 27/24 Q1007 RETSBECMG TL1230 HZ RMK CB TO N
Conditions at: WIII (SOEKARNO-HATTA I, ID) observed 1100 UTC 18 January 2019
Temperature: 27.0°C (81°F)
Dewpoint: 24.0°C (75°F) [RH = 84%]
Pressure (altimeter): 29.73 inches Hg (1007.0 mb)
Winds: variable direction winds at 3 MPH (3 knots; 1.5 m/s)
Visibility: 3 miles ( 5 km)
Ceiling: 1900 feet AGL
Clouds: few clouds at 1800 feet AGL
broken clouds at 1900 feet AGL
Weather: -RA HZ  (light rain, haze)

METAR text: WIII 181030Z VRB05KT 4000 -TSRA FEW018CB BKN019 27/23 Q1006 BECMG TL1100 HZ RMK CB TO E
Conditions at: WIII (SOEKARNO-HATTA I, ID) observed 1030 UTC 18 January 2019
Temperature: 27.0°C (81°F)
Dewpoint: 23.0°C (73°F) [RH = 79%]
Pressure (altimeter): 29.70 inches Hg (1006.0 mb)
Winds: variable direction winds at 6 MPH (5 knots; 2.6 m/s)
Visibility: 2.49 miles (4.01 km)
Ceiling: 1900 feet AGL
Clouds: few clouds at 1800 feet AGL
broken clouds at 1900 feet AGL
Weather: -TSRA  (light rain associated with thunderstorm(s))

METAR text: WIII 181000Z 19009KT 4000 TSRA FFEW018CB BKN019 28/24 Q1006 BECMG TL1130 HZ RMK CB TO SE
Conditions at: WIII (SOEKARNO-HATTA I, ID) observed 1000 UTC 18 January 2019
Temperature: 28.0°C (82°F)
Dewpoint: 24.0°C (75°F) [RH = 79%]
Pressure (altimeter): 29.70 inches Hg (1006.0 mb)
Winds: from the S (190 degrees) at 10 MPH (9 knots; 4.6 m/s)
Visibility: 2.49 miles (4.01 km)
Ceiling: 1900 feet AGL
Clouds: few clouds at 1800 feet AGL
broken clouds at 1900 feet AGL
Weather: TSRA  (rain associated with thunderstorm(s))

METAR text: WIII 180930Z VRB03KT 7000 TS FEW018CB BKN019 29/24 Q1005 NOSIGRMK CB TO S
Conditions at: WIII (SOEKARNO-HATTA I, ID) observed 0930 UTC 18 January 2019
Temperature: 29.0°C (84°F)
Dewpoint: 24.0°C (75°F) [RH = 74%]
Pressure (altimeter): 29.68 inches Hg (1005.0 mb)
Winds: variable direction winds at 3 MPH (3 knots; 1.5 m/s)
Visibility: 4 miles ( 7 km)
Ceiling: 1900 feet AGL
Clouds: few clouds at 1800 feet AGL
broken clouds at 1900 feet AGL
Weather: TS GR  (thunderstorm, hail)

METAR text: WIII 180900Z VRB05KT 7000 TS FEW018CB BKN019 30/23 Q1005 TEMPOFM0910 TL1000 -TSRA RMK CB TO S
Conditions at: WIII (SOEKARNO-HATTA I, ID) observed 0900 UTC 18 January 2019
Temperature: 30.0°C (86°F)
Dewpoint: 23.0°C (73°F) [RH = 66%]
Pressure (altimeter): 29.68 inches Hg (1005.0 mb)
Winds: variable direction winds at 6 MPH (5 knots; 2.6 m/s)
Visibility: 4 miles ( 7 km)
Ceiling: 1900 feet AGL
Clouds: few clouds at 1800 feet AGL
broken clouds at 1900 feet AGL
Weather: TS  (thunderstorm)

METAR text: WIII 180830Z 35008KT 8000 FEW018CB SCT019 30/23 Q1005 NOSIG RMK CB TO SE
Conditions at: WIII (SOEKARNO-HATTA I, ID) observed 0830 UTC 18 January 2019
Temperature: 30.0°C (86°F)
Dewpoint: 23.0°C (73°F) [RH = 66%]
Pressure (altimeter): 29.68 inches Hg (1005.0 mb)
Winds: from the N (350 degrees) at 9 MPH (8 knots; 4.1 m/s)
Visibility: 5 miles ( 8 km)
Ceiling: at least 12,000 feet AGL
Clouds: few clouds at 1800 feet AGL
scattered clouds at 1900 feet AGL
Weather: no significant weather observed at this time

METAR text: WIII 180800Z 35008KT 8000 SCT019 30/24 Q1005 NOSIG
Conditions at: WIII (SOEKARNO-HATTA I, ID) observed 0800 UTC 18 January 2019
Temperature: 30.0°C (86°F)
Dewpoint: 24.0°C (75°F) [RH = 70%]
Pressure (altimeter): 29.68 inches Hg (1005.0 mb)
Winds: from the N (350 degrees) at 9 MPH (8 knots; 4.1 m/s)
Visibility: 5 miles ( 8 km)
Ceiling: at least 12,000 feet AGL
Clouds: scattered clouds at 1900 feet AGL
Weather: no significant weather observed at this time

METAR text: WIII 180730Z 35008KT 8000 BKN019 30/23 Q1006 RERA BECMG TL0830HZ
Conditions at: WIII (SOEKARNO-HATTA I, ID) observed 0730 UTC 18 January 2019
Temperature: 30.0°C (86°F)
Dewpoint: 23.0°C (73°F) [RH = 66%]
Pressure (altimeter): 29.70 inches Hg (1006.0 mb)
Winds: from the N (350 degrees) at 9 MPH (8 knots; 4.1 m/s)
Visibility: 5 miles ( 8 km)
Ceiling: 1900 feet AGL
Clouds: broken clouds at 1900 feet AGL
Weather: no significant weather observed at this time

METAR text: WIII 180700Z 35007KT 7000 -RA BKN019 30/24 Q1006 BECMG TL 0830HZ
Conditions at: WIII (SOEKARNO-HATTA I, ID) observed 0700 UTC 18 January 2019
Temperature: 30.0°C (86°F)
Dewpoint: 24.0°C (75°F) [RH = 70%]
Pressure (altimeter): 29.70 inches Hg (1006.0 mb)
Winds: from the N (350 degrees) at 8 MPH (7 knots; 3.6 m/s)
Visibility: 4 miles ( 7 km)
Ceiling: 1900 feet AGL
Clouds: broken clouds at 1900 feet AGL
Weather: -RA  (light rain)

METAR text: WIII 180630Z 33007KT 7000 -RA FEW018CB BKN019 29/24 Q1007 BECMG TL0745 HZ RMK CB TO SE
Conditions at: WIII (SOEKARNO-HATTA I, ID) observed 0630 UTC 18 January 2019
Temperature: 29.0°C (84°F)
Dewpoint: 24.0°C (75°F) [RH = 74%]
Pressure (altimeter): 29.73 inches Hg (1007.0 mb)
Winds: from the NNW (330 degrees) at 8 MPH (7 knots; 3.6 m/s)
Visibility: 4 miles ( 7 km)
Ceiling: 1900 feet AGL
Clouds: few clouds at 1800 feet AGL
broken clouds at 1900 feet AGL
Weather: -RA  (light rain)

METAR text: WIII 180600Z 28006KT 7000 -RA FEW018CB BKN019 29/24 Q1007 NOSIG RMK CB TO SE
Conditions at: WIII (SOEKARNO-HATTA I, ID) observed 0600 UTC 18 January 2019
Temperature: 29.0°C (84°F)
Dewpoint: 24.0°C (75°F) [RH = 74%]
Pressure (altimeter): 29.73 inches Hg (1007.0 mb)
Winds: from the W (280 degrees) at 7 MPH (6 knots; 3.1 m/s)
Visibility: 4 miles ( 7 km)
Ceiling: 1900 feet AGL
Clouds: few clouds at 1800 feet AGL
broken clouds at 1900 feet AGL
Weather: -RA  (light rain)

METAR text: WIII 180530Z 32010KT 6000 -RA FEW018CB BKN019 30/23 Q1008 TEMPO FM0510 TL0600 -RA RMK CB TO NE
Conditions at: WIII (SOEKARNO-HATTA I, ID) observed 0530 UTC 18 January 2019
Temperature: 30.0°C (86°F)
Dewpoint: 23.0°C (73°F) [RH = 66%]
Pressure (altimeter): 29.76 inches Hg (1008.0 mb)
Winds: from the NW (320 degrees) at 12 MPH (10 knots; 5.1 m/s)
Visibility: 4 miles ( 6 km)
Ceiling: 1900 feet AGL
Clouds: few clouds at 1800 feet AGL
broken clouds at 1900 feet AGL
Weather: -RA  (light rain)

METAR text: WIII 180500Z 30009KT 8000 FEW018CB BKN019 30/24 Q1008 TEMPO FM0510 TL0600 -RA RMK CB TO SW
Conditions at: WIII (SOEKARNO-HATTA I, ID) observed 0500 UTC 18 January 2019
Temperature: 30.0°C (86°F)
Dewpoint: 24.0°C (75°F) [RH = 70%]
Pressure (altimeter): 29.76 inches Hg (1008.0 mb)
Winds: from the WNW (300 degrees) at 10 MPH (9 knots; 4.6 m/s)
Visibility: 5 miles ( 8 km)
Ceiling: 1900 feet AGL
Clouds: few clouds at 1800 feet AGL
broken clouds at 1900 feet AGL
Weather: no significant weather observed at this time

METAR text: WIII 180430Z 31008KT 270V340 8000 FEW018CB SCT019 30/24 Q1008 NOSIG RMK CB TO NE
Conditions at: WIII (SOEKARNO-HATTA I, ID) observed 0430 UTC 18 January 2019
Temperature: 30.0°C (86°F)
Dewpoint: 24.0°C (75°F) [RH = 70%]
Pressure (altimeter): 29.76 inches Hg (1008.0 mb)
Winds: from the NW (310 degrees) at 9 MPH (8 knots; 4.1 m/s)
Visibility: 5 miles ( 8 km)
Ceiling: at least 12,000 feet AGL
Clouds: few clouds at 1800 feet AGL
scattered clouds at 1900 feet AGL
Weather: no significant weather observed at this time

METAR text: WIII 180400Z 31008KT 8000 VCTS FEW018CB SCT019 30/23 Q1009 NOSIG RMK CB TO SW
Conditions at: WIII (SOEKARNO-HATTA I, ID) observed 0400 UTC 18 January 2019
Temperature: 30.0°C (86°F)
Dewpoint: 23.0°C (73°F) [RH = 66%]
Pressure (altimeter): 29.79 inches Hg (1009.0 mb)
Winds: from the NW (310 degrees) at 9 MPH (8 knots; 4.1 m/s)
Visibility: 5 miles ( 8 km)
Ceiling: at least 12,000 feet AGL
Clouds: few clouds at 1800 feet AGL
scattered clouds at 1900 feet AGL
Weather: VCTS  (thunderstorm in vicinity)

METAR text: WIII 180330Z 28008KT 9000 SCT019 29/23 Q1009 NOSIG
Conditions at: WIII (SOEKARNO-HATTA I, ID) observed 0330 UTC 18 January 2019
Temperature: 29.0°C (84°F)
Dewpoint: 23.0°C (73°F) [RH = 70%]
Pressure (altimeter): 29.79 inches Hg (1009.0 mb)
Winds: from the W (280 degrees) at 9 MPH (8 knots; 4.1 m/s)
Visibility: 6 miles ( 9 km)
Ceiling: at least 12,000 feet AGL
Clouds: scattered clouds at 1900 feet AGL
Weather: no significant weather observed at this time

METAR text: WIII 180300Z 28008KT 9000 SCT019 29/23 Q1009 NOSIG
Conditions at: WIII (SOEKARNO-HATTA I, ID) observed 0300 UTC 18 January 2019
Temperature: 29.0°C (84°F)
Dewpoint: 23.0°C (73°F) [RH = 70%]
Pressure (altimeter): 29.79 inches Hg (1009.0 mb)
Winds: from the W (280 degrees) at 9 MPH (8 knots; 4.1 m/s)
Visibility: 6 miles ( 9 km)
Ceiling: at least 12,000 feet AGL
Clouds: scattered clouds at 1900 feet AGL
Weather: no significant weather observed at this time

METAR text: WIII 180230Z 27009KT 9000 SCT020 29/23 Q1009 NOSIG
Conditions at: WIII (SOEKARNO-HATTA I, ID) observed 0230 UTC 18 January 2019
Temperature: 29.0°C (84°F)
Dewpoint: 23.0°C (73°F) [RH = 70%]
Pressure (altimeter): 29.79 inches Hg (1009.0 mb)
Winds: from the W (270 degrees) at 10 MPH (9 knots; 4.6 m/s)
Visibility: 6 miles ( 9 km)
Ceiling: at least 12,000 feet AGL
Clouds: scattered clouds at 2000 feet AGL
Weather: no significant weather observed at this time

METAR text: WIII 180200Z 29006KT 8000 SCT020 28/23 Q1009 NOSIG
Conditions at: WIII (SOEKARNO-HATTA I, ID) observed 0200 UTC 18 January 2019
Temperature: 28.0°C (82°F)
Dewpoint: 23.0°C (73°F) [RH = 74%]
Pressure (altimeter): 29.79 inches Hg (1009.0 mb)
Winds: from the WNW (290 degrees) at 7 MPH (6 knots; 3.1 m/s)
Visibility: 5 miles ( 8 km)
Ceiling: at least 12,000 feet AGL
Clouds: scattered clouds at 2000 feet AGL
Weather: no significant weather observed at this time

METAR text: WIII 180130Z 27007KT 8000 FEW020 28/23 Q1009 NOSIG
Conditions at: WIII (SOEKARNO-HATTA I, ID) observed 0130 UTC 18 January 2019
Temperature: 28.0°C (82°F)
Dewpoint: 23.0°C (73°F) [RH = 74%]
Pressure (altimeter): 29.79 inches Hg (1009.0 mb)
Winds: from the W (270 degrees) at 8 MPH (7 knots; 3.6 m/s)
Visibility: 5 miles ( 8 km)
Ceiling: at least 12,000 feet AGL
Clouds: few clouds at 2000 feet AGL
Weather: no significant weather observed at this time

Forecast for: WIII (SOEKARNO-HATTA I, ID)
Text: TAF WIII 191100Z 1912/2018 25005KT 7000 FEW020
Forecast period: 1200 UTC 19 January 2019 to 0400 UTC 20 January 2019
Forecast type: FROM: standard forecast or significant change
Winds: from the WSW (250 degrees) at 6 MPH (5 knots; 2.6 m/s)
Visibility: 4 miles (7 km)
Ceiling: at least 12,000 feet AGL
Clouds: few clouds at 2000 feet AGL
Weather: no significant weather forecast for this period
Text: TEMPO 1921/1923 4000 -TSRA FEW015CB BKN019
Forecast period: 2100 to 2300 UTC 19 January 2019
Forecast type: TEMPORARY: The following changes expected for less than half the time period
Visibility: 2.49 miles (4.01 km)
Ceiling: 1900 feet AGL
Clouds: few clouds at 1500 feet AGL
broken clouds at 1900 feet AGL
Weather: -TSRA  (light rain associated with thunderstorm(s))
Text: BECMG 2004/2006 32010KT
Forecast period: 0400 to 1800 UTC 20 January 2019
Forecast type: BECOMING: Conditions expected to become as follows by 0600 UTC 20 January 2019
Winds: from the NW (320 degrees) at 12 MPH (10 knots; 5.1 m/s)
Visibility: 4 miles (7 km)
Ceiling: at least 12,000 feet AGL
Clouds: few clouds at 2000 feet AGL
Weather: no significant weather forecast for this period